EPGD

Gdańsk Lech Wałęsa Airport

Gdańsk, Poland
METAR EPGD 230900Z 15007KT 130V200 9999 -SHRA SCT061TCU 14/05 Q1010
Observed Flight Rules
Apr-23 @ 09:00 UTC (39 minutes ago) Visual Flight Rules
Wind Visibility Clouds Conditions
150° at 7 knots 10,000+ meters
  • Scattered at 6,100' AGL
  • Light Rain
Temperatures Readings
Current 14°C / 57°F
Dewpoint 5°C / 41°F
Humidity 55%
Altimeter 29.82" Hg
Pressure 1010 hPa
Elevation 138
METAR EPGD 230900Z 15007KT 130V200 9999 -SHRA SCT061TCU 14/05 Q1010
Observed Flight Rules
Apr-23 @ 09:00 UTC
(39 minutes ago)
VFR
Wind Visibility
150° at 7 knots 10,000+ meters
Clouds
  • Scattered at 6,100' AGL
Conditions
  • Light Rain
Temperature Dewpoint
14°C / 57°F 5°C / 41°F
Humidity Altimeter Pressure
55% 29.82" Hg 1010 hPa